Time;durP1;ratioP1;P1;durP2;ratioP2;P2;SDS_P1;SDS_P2;PMS_P1;PMS_P2;Temp;Humidity;BMP_temperature;BMP_pressure;BME280_temperature;BME280_humidity;BME280_pressure;Samples;Min_cycle;Max_cycle;Signal;HPM_P1;HPM_P2
2023/03/09 00:07:08;;;;;;;33.57;15.17;;;;;;;11.64;100.00;99251.84;31231516;28;20111;-80
2023/03/09 00:22:10;;;;;;;31.23;12.57;;;;;;;11.87;100.00;99254.09;31218092;28;20087;-79
2023/03/09 00:37:12;;;;;;;26.60;9.87;;;;;;;11.93;100.00;99241.44;31208643;28;20053;-77
2023/03/09 00:52:14;;;;;;;19.27;8.80;;;;;;;12.09;100.00;99220.63;31217466;28;20041;-78
2023/03/09 01:07:16;;;;;;;23.53;10.87;;;;;;;12.19;100.00;99230.34;31233718;28;20511;-76
2023/03/09 01:22:18;;;;;;;22.80;10.83;;;;;;;12.13;100.00;99224.72;31196318;28;20085;-75
2023/03/09 01:37:20;;;;;;;26.80;11.27;;;;;;;12.22;100.00;99218.56;31213485;28;20103;-76
2023/03/09 01:52:28;;;;;;;30.57;10.87;;;;;;;12.45;100.00;99242.47;31227028;28;20052;-78
2023/03/09 02:07:36;;;;;;;28.73;12.10;;;;;;;12.51;100.00;99251.56;31241325;28;20109;-80
2023/03/09 02:22:40;;;;;;;22.40;10.90;;;;;;;12.71;100.00;99242.97;31230906;28;20045;-77
2023/03/09 02:37:43;;;;;;;25.00;11.27;;;;;;;12.69;100.00;99256.28;31243693;28;20049;-78
2023/03/09 02:52:45;;;;;;;30.30;12.30;;;;;;;12.72;100.00;99244.47;31201232;28;20045;-79
2023/03/09 03:07:47;;;;;;;32.30;14.20;;;;;;;12.49;100.00;99267.59;31212629;28;20079;-77
2023/03/09 03:22:49;;;;;;;33.67;14.03;;;;;;;12.31;100.00;99270.25;31207017;28;20068;-81
2023/03/09 03:37:51;;;;;;;32.10;13.93;;;;;;;12.35;100.00;99270.88;31248773;28;20053;-78
2023/03/09 03:52:53;;;;;;;32.07;13.53;;;;;;;12.39;100.00;99243.53;31230142;28;20053;-79
2023/03/09 04:07:55;;;;;;;30.10;13.87;;;;;;;12.30;100.00;99236.09;31206980;28;20053;-78
2023/03/09 04:22:57;;;;;;;32.03;15.50;;;;;;;12.12;100.00;99225.16;31239307;28;20091;-78
2023/03/09 04:37:59;;;;;;;36.37;14.37;;;;;;;12.22;100.00;99240.31;31182732;28;20056;-79
2023/03/09 04:53:01;;;;;;;39.53;16.73;;;;;;;12.17;100.00;99238.19;31197661;28;20549;-80
2023/03/09 05:08:03;;;;;;;38.20;17.70;;;;;;;12.25;100.00;99221.13;31196965;28;20526;-79
2023/03/09 05:23:05;;;;;;;30.57;12.93;;;;;;;12.20;100.00;99215.53;31202159;28;20045;-78
2023/03/09 05:38:07;;;;;;;30.03;13.37;;;;;;;12.31;100.00;99221.28;31229856;28;20711;-76
2023/03/09 05:53:09;;;;;;;43.50;18.70;;;;;;;12.18;100.00;99234.25;31217177;28;20050;-77
2023/03/09 06:08:13;;;;;;;31.93;15.57;;;;;;;12.43;100.00;99239.47;31236814;28;20560;-78
2023/03/09 06:23:15;;;;;;;31.80;14.20;;;;;;;12.20;100.00;99215.53;31218360;28;20115;-78
2023/03/09 06:38:17;;;;;;;34.50;16.60;;;;;;;12.48;100.00;99213.59;31208462;28;20869;-76
2023/03/09 06:53:19;;;;;;;35.10;15.27;;;;;;;12.93;100.00;99201.97;31225139;28;20058;-79
2023/03/09 07:08:21;;;;;;;30.70;13.97;;;;;;;13.11;100.00;99221.00;31211290;28;20112;-77
2023/03/09 07:23:23;;;;;;;37.10;14.37;;;;;;;13.48;100.00;99242.75;31240195;28;20452;-78
2023/03/09 07:38:25;;;;;;;23.67;11.23;;;;;;;14.67;100.00;99240.97;31219204;28;20041;-75
2023/03/09 07:53:30;;;;;;;24.97;11.60;;;;;;;17.98;100.00;99222.97;31214863;28;20041;-78
2023/03/09 08:08:32;;;;;;;;;;;;;;;19.41;100.00;99209.47;31238551;28;20080;-77
2023/03/09 08:23:37;;;;;;;16.33;8.50;;;;;;;20.33;100.00;99213.13;31229112;28;20353;-81
2023/03/09 08:38:40;;;;;;;;;;;;;;;20.67;100.00;99197.22;31212494;28;20057;-79
2023/03/09 08:53:43;;;;;;;16.70;8.00;;;;;;;21.55;100.00;99182.59;31218457;28;19921;-79
2023/03/09 09:08:48;;;;;;;13.57;7.80;;;;;;;22.53;81.17;99173.00;31203262;28;20062;-78
2023/03/09 09:23:53;;;;;;;14.15;7.40;;;;;;;23.09;68.03;99163.94;31180156;28;20053;-81
2023/03/09 09:38:55;;;;;;;10.90;5.20;;;;;;;23.83;74.46;99142.06;31204915;28;20463;-81
2023/03/09 09:54:11;;;;;;;7.32;4.97;;;;;;;23.92;61.20;99144.41;31207554;28;20140;-84
2023/03/09 10:09:23;;;;;;;9.48;4.15;;;;;;;25.68;52.60;99120.00;31211809;28;20111;-80
2023/03/09 10:24:29;;;;;;;5.73;3.60;;;;;;;24.82;51.17;99105.94;31172730;28;20135;-80
2023/03/09 10:39:39;;;;;;;9.40;3.78;;;;;;;25.31;45.47;99071.94;31200781;28;20132;-80
2023/03/09 10:54:41;;;;;;;10.30;3.88;;;;;;;25.86;42.16;99045.97;31246271;28;20095;-81
2023/03/09 11:09:43;;;;;;;6.60;2.75;;;;;;;25.93;40.11;99023.03;31223431;28;20068;-77
2023/03/09 11:24:46;;;;;;;5.90;3.42;;;;;;;25.67;40.26;99012.91;31203304;28;20058;-79
2023/03/09 11:39:53;;;;;;;6.30;3.47;;;;;;;25.24;37.41;98978.22;31195383;28;20495;-78
2023/03/09 11:54:59;;;;;;;9.60;3.45;;;;;;;26.35;36.12;98965.13;31204997;28;20049;-77
2023/03/09 12:10:07;;;;;;;5.70;3.13;;;;;;;26.27;35.05;98972.69;31226124;28;20104;-75
2023/03/09 12:25:19;;;;;;;12.40;3.40;;;;;;;24.69;34.83;98956.16;31211526;28;20045;-75
2023/03/09 12:40:34;;;;;;;9.15;4.25;;;;;;;23.08;36.92;98954.88;31233511;28;20470;-81
2023/03/09 12:55:36;;;;;;;8.52;3.55;;;;;;;22.75;38.00;98945.84;31225984;28;20061;-83
2023/03/09 13:10:38;;;;;;;8.23;3.10;;;;;;;22.22;39.23;98935.94;31209841;28;20107;-81
2023/03/09 13:25:56;;;;;;;3.75;2.50;;;;;;;21.56;39.11;98930.06;31240745;28;20053;-80
2023/03/09 13:41:02;;;;;;;5.15;2.75;;;;;;;21.47;40.60;98933.94;31223165;28;20045;-82
2023/03/09 13:56:05;;;;;;;6.15;3.75;;;;;;;21.51;41.90;98914.31;31233789;28;20058;-80
2023/03/09 14:11:24;;;;;;;7.93;3.15;;;;;;;21.44;43.09;98907.38;31271118;28;20096;-80
2023/03/09 14:26:29;;;;;;;7.90;3.53;;;;;;;21.44;42.55;98902.59;31258165;28;20065;-81
2023/03/09 14:41:33;;;;;;;5.03;2.88;;;;;;;20.69;43.56;98896.91;31203445;28;20050;-84
2023/03/09 14:56:35;;;;;;;4.63;2.53;;;;;;;20.30;44.85;98893.75;31233998;28;20077;-77
2023/03/09 15:11:38;;;;;;;4.28;2.33;;;;;;;19.93;46.39;98894.25;31243929;28;20049;-75
2023/03/09 15:26:41;;;;;;;4.03;2.53;;;;;;;19.62;48.53;98892.69;31234930;28;20065;-80
2023/03/09 15:41:44;;;;;;;2.90;1.97;;;;;;;19.16;49.27;98902.38;31258114;28;20041;-84
2023/03/09 15:56:46;;;;;;;6.73;2.50;;;;;;;18.94;49.60;98905.19;31277965;28;20091;-75
2023/03/09 16:11:48;;;;;;;9.10;2.20;;;;;;;18.48;51.81;98930.47;31261885;28;20061;-76
2023/03/09 16:26:51;;;;;;;9.57;3.47;;;;;;;17.86;54.96;98924.19;31234042;28;20478;-79
2023/03/09 16:41:53;;;;;;;7.70;2.20;;;;;;;17.56;57.54;98937.53;31242674;28;20060;-84
2023/03/09 16:56:55;;;;;;;4.50;2.63;;;;;;;17.12;60.53;98925.13;31261626;28;20064;-86
2023/03/09 17:11:58;;;;;;;5.97;2.93;;;;;;;16.69;66.09;98927.88;31261305;28;20498;-87
2023/03/09 17:27:03;;;;;;;3.10;1.97;;;;;;;16.24;81.84;98948.66;31279866;28;20709;-84
2023/03/09 17:42:05;;;;;;;;;;;;;;;16.02;93.59;98930.06;31236482;28;20407;-85
2023/03/09 17:57:13;;;;;;;11.43;3.23;;;;;;;15.78;100.00;98921.34;31279361;28;19974;-79
2023/03/09 18:31:38;;;;;;;7.03;3.27;;;;;;;15.77;100.00;98917.13;31724610;27;1499586;-92
2023/03/09 18:46:40;;;;;;;7.07;2.87;;;;;;;15.20;100.00;98904.00;31668445;28;20051;-92
2023/03/09 19:01:43;;;;;;;6.63;3.33;;;;;;;15.06;100.00;98915.00;31665845;28;20045;-90
2023/03/09 19:16:49;;;;;;;5.63;2.23;;;;;;;14.80;100.00;98893.78;31640263;28;20076;-86
2023/03/09 19:31:52;;;;;;;4.97;3.17;;;;;;;14.54;100.00;98884.72;31621070;28;20105;-90
2023/03/09 19:46:54;;;;;;;8.23;3.97;;;;;;;14.44;100.00;98886.03;31587581;28;20049;-88
2023/03/09 20:01:57;;;;;;;7.40;4.57;;;;;;;14.13;100.00;98875.63;31587479;28;20087;-87
2023/03/09 20:16:59;;;;;;;9.97;5.27;;;;;;;13.78;100.00;98881.72;31631697;28;20048;-85
2023/03/09 20:32:02;;;;;;;11.43;5.10;;;;;;;13.62;100.00;98904.00;31587344;28;20056;-86
2023/03/09 20:47:04;;;;;;;7.97;4.07;;;;;;;13.59;100.00;98899.47;31597636;28;20050;-86
2023/03/09 21:02:17;;;;;;;7.83;3.80;;;;;;;13.53;100.00;98901.34;31611225;28;20052;-87
2023/03/09 21:17:26;;;;;;;11.43;4.20;;;;;;;13.20;100.00;98910.38;31592883;28;20086;-88
2023/03/09 21:32:28;;;;;;;11.77;6.07;;;;;;;12.81;100.00;98908.75;31577132;28;20058;-86
2023/03/09 21:47:31;;;;;;;10.77;4.90;;;;;;;12.58;100.00;98924.56;31628883;28;20052;-86
2023/03/09 22:02:36;;;;;;;14.40;5.00;;;;;;;12.40;100.00;98907.56;31596189;28;20066;-87
2023/03/09 22:17:40;;;;;;;16.10;6.40;;;;;;;12.21;100.00;98901.44;31619270;28;20109;-88
2023/03/09 22:32:42;;;;;;;8.67;5.33;;;;;;;12.21;100.00;98885.09;31608998;28;20559;-84
2023/03/09 22:47:44;;;;;;;20.53;8.13;;;;;;;11.99;100.00;98879.88;31583798;28;20048;-84
2023/03/09 23:02:49;;;;;;;18.03;9.07;;;;;;;11.84;100.00;98878.97;31627052;28;20079;-84
2023/03/09 23:18:08;;;;;;;23.47;10.30;;;;;;;11.71;100.00;98878.38;31589748;28;20052;-86
2023/03/09 23:33:10;;;;;;;21.50;10.33;;;;;;;11.48;100.00;98868.88;31638683;28;20059;-89
2023/03/09 23:48:13;;;;;;;21.40;9.17;;;;;;;11.36;100.00;98851.50;31617950;28;20440;-87
